This is the latest recevied weather packets stored in our database for station/object W7PLC. If no packets are shown the sender has not sent any weather packets the latest 10 day(s).
| Time | Temp. | Humidity | Pressure | Rain* | Wind** | Luminosity | Snow |
|---|---|---|---|---|---|---|---|
| 1777931122 | 27.22° C | 47% | 1009 hPa | 0 mm | - | 546 W/m² | - |
| 1777930818 | 27.78° C | 46% | 1008.9 hPa | 0 mm | - | 626 W/m² | - |
| 1777930515 | 27.22° C | 49% | 1009.2 hPa | 0 mm | - | 701 W/m² | - |
| 1777930212 | 28.33° C | 47% | 1009.2 hPa | 0 mm | - | 556 W/m² | - |
| 1777929908 | 27.22° C | 48% | 1009 hPa | 0 mm | - | 609 W/m² | - |
| 1777929606 | 27.78° C | 47% | 1009.2 hPa | 0 mm | - | 685 W/m² | - |
| 1777929302 | 27.78° C | 51% | 1009.2 hPa | 0 mm | - | 651 W/m² | - |
| 1777929000 | 27.78° C | 48% | 1009.4 hPa | 0 mm | - | 637 W/m² | - |
| 1777928696 | 27.22° C | 50% | 1009.4 hPa | 0 mm | - | 651 W/m² | - |
| 1777928393 | 27.22° C | 50% | 1009 hPa | 0 mm | - | 660 W/m² | - |
| 1777928090 | 28.33° C | 48% | 1009.3 hPa | 0 mm | - | 641 W/m² | - |
| 1777927789 | 26.67° C | 52% | 1009.2 hPa | 0 mm | - | 634 W/m² | - |
| 1777927487 | 25.56° C | 55% | 1009.3 hPa | 0 mm | - | 642 W/m² | - |
| 1777927185 | 27.22° C | 51% | 1009.5 hPa | 0 mm | - | 680 W/m² | - |
| 1777926883 | 27.22° C | 50% | 1009.4 hPa | 0 mm | - | 657 W/m² | - |
| 1777926579 | 27.78° C | 49% | 1009.5 hPa | 0 mm | - | 711 W/m² | - |
| 1777926275 | 27.22° C | 52% | 1009.5 hPa | 0 mm | - | 700 W/m² | - |
| 1777925972 | 27.22° C | 52% | 1009.4 hPa | 0 mm | - | 665 W/m² | - |
| 1777925670 | 25.56° C | 54% | 1009.4 hPa | 0 mm | - | 673 W/m² | - |
| 1777925367 | 26.11° C | 55% | 1009.7 hPa | 0 mm | - | 583 W/m² | - |
| 1777925064 | 26.67° C | 52% | 1009.7 hPa | 0 mm | - | 623 W/m² | - |
| 1777924760 | 26.67° C | 53% | 1009.7 hPa | 0 mm | - | 651 W/m² | - |
| 1777924456 | 25.56° C | 55% | 1009.6 hPa | 0 mm | - | 660 W/m² | - |
| 1777924153 | 27.22° C | 51% | 1009.7 hPa | 0 mm | - | 610 W/m² | - |
| 1777923849 | 26.11° C | 53% | 1009.5 hPa | 0 mm | - | 592 W/m² | - |
* Rain latest hour (hover to see other rain measurements)
** Current wind speed in m/s (hover to see current wind gust speed)